createdAt,value
2019-02-17T00:01:05.576Z,19.63
2019-02-17T00:03:34.058Z,19.33
2019-02-17T00:06:02.526Z,20.50
2019-02-17T00:08:30.939Z,19.57
2019-02-17T00:10:59.333Z,20.00
2019-02-17T00:13:27.752Z,19.73
2019-02-17T00:15:56.135Z,19.13
2019-02-17T00:18:24.542Z,19.30
2019-02-17T00:20:53.003Z,20.63
2019-02-17T00:23:21.471Z,21.63
2019-02-17T00:25:49.865Z,21.97
2019-02-17T00:28:18.275Z,20.37
2019-02-17T00:30:46.671Z,20.97
2019-02-17T00:33:15.079Z,19.67
2019-02-17T00:35:43.543Z,19.30
2019-02-17T00:38:11.963Z,23.30
2019-02-17T00:40:40.608Z,20.20
2019-02-17T00:43:08.999Z,18.07
2019-02-17T00:45:37.470Z,18.30
2019-02-17T00:48:05.919Z,25.83
2019-02-17T00:50:34.567Z,25.50
2019-02-17T00:53:03.053Z,24.20
2019-02-17T00:55:31.423Z,25.87
2019-02-17T00:57:59.819Z,22.13
2019-02-17T01:00:28.212Z,19.23
2019-02-17T01:02:56.609Z,19.30
2019-02-17T01:05:25.087Z,19.93
2019-02-17T01:07:53.816Z,21.20
2019-02-17T01:10:22.259Z,21.13
2019-02-17T01:12:51.079Z,23.70
2019-02-17T01:15:19.783Z,22.43
2019-02-17T01:17:48.163Z,20.57
2019-02-17T01:20:17.171Z,20.73
2019-02-17T01:22:45.571Z,19.93
2019-02-17T01:25:14.015Z,20.17
2019-02-17T01:27:42.475Z,19.63
2019-02-17T01:30:13.323Z,19.93
2019-02-17T01:32:41.803Z,20.97
2019-02-17T01:35:10.189Z,20.90
2019-02-17T01:37:38.663Z,20.50
2019-02-17T01:40:08.063Z,19.83
2019-02-17T01:42:36.443Z,20.37
2019-02-17T01:45:05.482Z,20.07
2019-02-17T01:47:33.887Z,20.03
2019-02-17T01:50:02.267Z,18.20
2019-02-17T01:52:30.734Z,19.67
2019-02-17T01:54:59.242Z,20.03
2019-02-17T01:57:27.638Z,20.17
2019-02-17T01:59:56.262Z,20.67
2019-02-17T02:02:24.798Z,18.80
2019-02-17T02:04:53.246Z,21.87
2019-02-17T02:07:21.722Z,23.97
2019-02-17T02:09:50.237Z,20.47
2019-02-17T02:12:18.921Z,19.13
2019-02-17T02:14:47.302Z,19.17
2019-02-17T02:17:15.709Z,19.47
2019-02-17T02:19:44.821Z,18.67
2019-02-17T02:22:13.281Z,18.77
2019-02-17T02:24:41.651Z,18.73
2019-02-17T02:27:10.117Z,18.47
2019-02-17T02:29:40.951Z,18.33
2019-02-17T02:32:08.593Z,19.63
2019-02-17T02:34:37.077Z,19.27
2019-02-17T02:37:05.778Z,19.77
2019-02-17T02:39:34.466Z,18.40
2019-02-17T02:42:03.149Z,17.83
2019-02-17T02:44:31.617Z,18.57
2019-02-17T02:47:00.022Z,17.77
2019-02-17T02:49:29.561Z,17.97
2019-02-17T02:51:58.690Z,18.23
2019-02-17T02:54:27.189Z,18.53
2019-02-17T02:56:55.661Z,19.57
2019-02-17T02:59:24.112Z,18.37
2019-02-17T03:01:52.509Z,17.93
2019-02-17T03:04:20.932Z,18.23
2019-02-17T03:06:55.376Z,18.73
2019-02-17T03:09:24.297Z,19.20
2019-02-17T03:11:52.773Z,17.57
2019-02-17T03:14:21.182Z,18.33
2019-02-17T03:16:49.617Z,18.70
2019-02-17T03:19:18.609Z,19.33
2019-02-17T03:21:47.008Z,19.60
2019-02-17T03:24:15.424Z,18.33
2019-02-17T03:26:44.109Z,18.20
2019-02-17T03:29:12.504Z,18.17
2019-02-17T03:31:40.987Z,19.37
2019-02-17T03:34:09.498Z,19.30
2019-02-17T03:36:38.365Z,18.17
2019-02-17T03:39:07.105Z,19.37
2019-02-17T03:41:35.571Z,18.37
2019-02-17T03:44:04.033Z,18.57
2019-02-17T03:46:32.853Z,19.20
2019-02-17T03:49:01.230Z,18.47
2019-02-17T03:51:29.689Z,18.33
2019-02-17T03:53:58.149Z,18.27
2019-02-17T03:56:26.607Z,18.40
2019-02-17T03:58:55.362Z,19.07
2019-02-17T04:01:24.144Z,18.77
2019-02-17T04:03:52.557Z,19.27
2019-02-17T04:06:21.281Z,18.40
2019-02-17T04:08:49.666Z,18.97
2019-02-17T04:11:18.102Z,20.03
2019-02-17T04:13:46.641Z,19.03
2019-02-17T04:16:15.541Z,19.47
2019-02-17T04:18:43.925Z,20.33
2019-02-17T04:21:12.385Z,18.60
2019-02-17T04:23:41.215Z,18.87
2019-02-17T04:26:09.869Z,18.63
2019-02-17T04:28:38.373Z,18.80
2019-02-17T04:31:06.752Z,19.00
2019-02-17T04:33:35.237Z,18.57
2019-02-17T04:36:04.113Z,18.13
2019-02-17T04:38:32.518Z,18.60
2019-02-17T04:41:01.366Z,18.97
2019-02-17T04:43:29.751Z,18.40
2019-02-17T04:45:58.162Z,19.70
2019-02-17T04:48:26.934Z,20.07
2019-02-17T04:50:55.334Z,19.07
2019-02-17T04:53:23.802Z,19.97
2019-02-17T04:55:52.479Z,20.67
2019-02-17T04:58:20.881Z,19.20
2019-02-17T05:00:50.143Z,19.37
2019-02-17T05:03:18.902Z,19.07
2019-02-17T05:05:47.302Z,19.47
2019-02-17T05:08:15.704Z,19.03
2019-02-17T05:10:44.167Z,18.97
2019-02-17T05:13:12.550Z,19.67
2019-02-17T05:15:40.978Z,19.73
2019-02-17T05:18:09.438Z,18.77
2019-02-17T05:20:38.220Z,19.37
2019-02-17T05:23:07.059Z,18.67
2019-02-17T05:25:35.880Z,18.73
2019-02-17T05:28:04.270Z,19.47
2019-02-17T05:30:33.459Z,19.33
2019-02-17T05:33:01.871Z,18.80
2019-02-17T05:35:30.547Z,19.17
2019-02-17T05:37:59.765Z,18.90
2019-02-17T05:40:28.243Z,18.63
2019-02-17T05:42:56.647Z,18.50
2019-02-17T05:45:25.039Z,18.23
2019-02-17T05:47:53.447Z,19.30
2019-02-17T05:50:22.115Z,19.60
2019-02-17T05:52:50.514Z,19.73
2019-02-17T05:55:18.908Z,18.30
2019-02-17T05:57:47.314Z,18.83
2019-02-17T06:00:17.441Z,19.03
2019-02-17T06:02:45.832Z,18.67
2019-02-17T06:05:14.313Z,18.87
2019-02-17T06:07:42.806Z,20.23
2019-02-17T06:10:11.262Z,17.57
2019-02-17T06:12:39.686Z,19.30
2019-02-17T06:15:08.163Z,19.33
2019-02-17T06:17:36.922Z,18.97
2019-02-17T06:20:05.475Z,17.30
2019-02-17T06:22:33.867Z,19.27
2019-02-17T06:25:02.255Z,18.07
2019-02-17T06:27:30.642Z,17.93
2019-02-17T06:29:59.066Z,18.03
2019-02-17T06:32:27.591Z,18.73
2019-02-17T06:34:56.006Z,18.00
2019-02-17T06:37:24.486Z,18.80
2019-02-17T06:39:52.890Z,18.87
2019-02-17T06:42:21.312Z,18.83
2019-02-17T06:44:49.687Z,18.63
2019-02-17T06:47:21.775Z,19.33
2019-02-17T06:49:50.191Z,19.37
2019-02-17T06:52:19.419Z,18.87
2019-02-17T06:54:58.027Z,18.97
2019-02-17T06:57:31.615Z,20.07
2019-02-17T07:00:16.603Z,18.77
2019-02-17T07:02:45.283Z,19.23
2019-02-17T07:05:26.171Z,18.53
2019-02-17T07:07:54.667Z,20.87
2019-02-17T07:10:23.075Z,20.60
2019-02-17T07:12:51.483Z,21.27
2019-02-17T07:15:19.892Z,22.33
2019-02-17T07:17:48.379Z,21.37
2019-02-17T07:20:16.788Z,22.60
2019-02-17T07:22:45.608Z,21.87
2019-02-17T07:25:14.092Z,21.57
2019-02-17T07:27:42.580Z,22.27
2019-02-17T07:30:11.053Z,20.57
2019-02-17T07:32:39.700Z,21.30
2019-02-17T07:35:08.280Z,21.33
2019-02-17T07:37:36.691Z,20.40
2019-02-17T07:40:05.199Z,21.00
2019-02-17T07:42:33.760Z,22.10
2019-02-17T07:45:02.284Z,26.07
2019-02-17T07:47:30.812Z,28.70
2019-02-17T07:49:59.391Z,26.90
2019-02-17T07:52:28.092Z,25.77
2019-02-17T07:54:56.616Z,26.83
2019-02-17T07:57:25.012Z,32.43
2019-02-17T07:59:53.424Z,25.40
2019-02-17T08:02:21.960Z,31.83
2019-02-17T08:04:50.516Z,29.10
2019-02-17T08:07:18.945Z,30.63
2019-02-17T08:09:47.485Z,24.10
2019-02-17T08:12:15.988Z,21.83
2019-02-17T08:14:44.778Z,28.23
2019-02-17T08:17:13.312Z,25.70
2019-02-17T08:19:41.745Z,22.30
2019-02-17T08:22:10.161Z,20.60
2019-02-17T08:24:38.574Z,21.03
2019-02-17T08:27:07.045Z,20.97
2019-02-17T08:29:35.481Z,21.73
2019-02-17T08:32:04.021Z,21.83
2019-02-17T08:34:32.446Z,21.03
2019-02-17T08:37:01.345Z,20.60
2019-02-17T08:39:29.729Z,18.80
2019-02-17T08:41:58.137Z,19.70
2019-02-17T08:44:26.697Z,18.50
2019-02-17T08:46:55.121Z,19.50
2019-02-17T08:49:23.585Z,21.80
2019-02-17T08:52:02.493Z,19.63
2019-02-17T08:54:38.423Z,18.00
2019-02-17T08:57:07.603Z,18.00
2019-02-17T08:59:36.010Z,17.60
2019-02-17T09:02:06.200Z,17.27
2019-02-17T09:04:34.561Z,18.17
2019-02-17T09:07:03.026Z,17.33
2019-02-17T09:09:31.783Z,17.77
2019-02-17T09:12:00.182Z,16.63
2019-02-17T09:14:28.738Z,16.67
2019-02-17T09:16:57.181Z,15.30
2019-02-17T09:19:25.674Z,16.27
2019-02-17T09:21:54.102Z,15.50
2019-02-17T09:24:22.662Z,19.30
2019-02-17T09:26:51.090Z,18.43
2019-02-17T09:29:20.709Z,17.33
2019-02-17T09:31:49.174Z,16.17
2019-02-17T09:34:17.662Z,14.93
2019-02-17T09:36:46.066Z,16.20
2019-02-17T09:39:14.570Z,14.23
2019-02-17T09:41:43.010Z,16.03
2019-02-17T09:44:11.503Z,16.43
2019-02-17T09:46:39.998Z,16.83
2019-02-17T09:49:08.462Z,15.80
2019-02-17T09:51:37.034Z,16.17
2019-02-17T09:54:05.527Z,16.17
2019-02-17T09:56:34.414Z,16.00
2019-02-17T09:59:02.901Z,15.43
2019-02-17T10:01:31.650Z,14.97
2019-02-17T10:04:00.111Z,16.23
2019-02-17T10:06:28.515Z,15.10
2019-02-17T10:08:57.026Z,16.63
2019-02-17T10:11:25.475Z,15.37
2019-02-17T10:13:53.863Z,15.67
2019-02-17T10:16:22.347Z,15.60
2019-02-17T10:18:50.749Z,15.13
2019-02-17T10:21:19.536Z,16.50
2019-02-17T10:23:48.046Z,14.77
2019-02-17T10:26:16.471Z,15.70
2019-02-17T10:28:45.339Z,15.63
2019-02-17T10:31:14.131Z,16.77
2019-02-17T10:33:42.526Z,14.80
2019-02-17T10:36:11.303Z,15.13
2019-02-17T10:38:39.693Z,15.47
2019-02-17T10:41:08.165Z,14.70
2019-02-17T10:43:36.859Z,15.43
2019-02-17T10:46:06.133Z,15.60
2019-02-17T10:48:34.759Z,15.37
2019-02-17T10:51:03.348Z,15.90
2019-02-17T10:53:31.749Z,15.90
2019-02-17T10:56:00.176Z,15.20
2019-02-17T10:58:28.739Z,16.13
2019-02-17T11:00:57.155Z,15.27
2019-02-17T11:03:25.572Z,16.33
2019-02-17T11:05:54.081Z,15.40
2019-02-17T11:08:22.608Z,15.17
2019-02-17T11:10:51.847Z,15.93
2019-02-17T11:13:20.844Z,15.73
2019-02-17T11:15:50.799Z,15.37
2019-02-17T11:18:19.723Z,14.37
2019-02-17T11:20:48.736Z,16.53
2019-02-17T11:23:17.219Z,14.95
2019-02-17T11:25:45.715Z,15.97
2019-02-17T11:28:14.105Z,15.50
2019-02-17T11:30:42.588Z,15.97
2019-02-17T11:33:11.039Z,16.30
2019-02-17T11:35:39.504Z,16.47
2019-02-17T11:38:08.013Z,16.00
2019-02-17T11:40:36.488Z,16.37
2019-02-17T11:43:05.003Z,15.60
2019-02-17T11:45:33.387Z,16.07
2019-02-17T11:48:02.533Z,16.97
2019-02-17T11:50:30.958Z,16.87
2019-02-17T11:52:59.369Z,15.67
2019-02-17T11:55:28.521Z,15.83
2019-02-17T11:57:56.944Z,16.83
2019-02-17T12:00:25.552Z,16.40
2019-02-17T12:02:54.268Z,16.00
2019-02-17T12:05:28.616Z,17.00
2019-02-17T12:07:57.194Z,16.57
2019-02-17T12:10:25.772Z,16.43
2019-02-17T12:12:54.396Z,16.23
2019-02-17T12:15:22.967Z,16.70
2019-02-17T12:17:51.588Z,15.90
2019-02-17T12:20:37.820Z,16.13
2019-02-17T12:23:13.224Z,16.77
2019-02-17T12:25:49.300Z,16.43
2019-02-17T12:28:22.177Z,17.83
2019-02-17T12:30:51.507Z,16.83
2019-02-17T12:33:21.759Z,16.80
2019-02-17T12:35:50.206Z,14.93
2019-02-17T12:38:18.660Z,16.47
2019-02-17T12:40:47.065Z,15.47
2019-02-17T12:43:15.561Z,17.07
2019-02-17T12:45:45.129Z,16.23
2019-02-17T12:48:13.577Z,16.50
2019-02-17T12:50:41.977Z,16.67
2019-02-17T12:53:10.457Z,17.17
2019-02-17T12:55:38.841Z,16.33
2019-02-17T12:58:07.318Z,15.50
2019-02-17T13:00:35.817Z,16.57
2019-02-17T13:03:04.221Z,15.57
2019-02-17T13:05:32.701Z,15.93
2019-02-17T13:08:01.117Z,16.13
2019-02-17T13:10:29.493Z,16.17
2019-02-17T13:12:57.953Z,16.40
2019-02-17T13:15:26.340Z,16.13
2019-02-17T13:17:54.781Z,17.07
2019-02-17T13:20:23.296Z,17.63
2019-02-17T13:22:52.098Z,15.13
2019-02-17T13:25:20.587Z,15.57
2019-02-17T13:27:49.785Z,15.80
2019-02-17T13:30:19.069Z,16.23
2019-02-17T13:32:47.477Z,17.80
2019-02-17T13:35:15.959Z,16.47
2019-02-17T13:37:44.495Z,16.30
2019-02-17T13:40:13.446Z,16.50
2019-02-17T13:42:41.925Z,16.23
2019-02-17T13:45:11.070Z,16.23
2019-02-17T13:47:39.491Z,16.70
2019-02-17T13:50:08.914Z,16.57
2019-02-17T13:52:44.702Z,16.37
2019-02-17T13:55:20.506Z,15.80
2019-02-17T13:57:52.357Z,15.00
2019-02-17T14:00:20.570Z,16.03
2019-02-17T14:02:49.058Z,15.53
2019-02-17T14:05:17.451Z,15.50
2019-02-17T14:07:46.092Z,15.03
2019-02-17T14:10:14.594Z,14.97
2019-02-17T14:12:43.068Z,15.40
2019-02-17T14:15:12.151Z,14.73
2019-02-17T14:17:40.540Z,15.07
2019-02-17T14:20:09.523Z,14.30
2019-02-17T14:22:38.037Z,14.97
2019-02-17T14:25:06.558Z,14.97
2019-02-17T14:27:35.007Z,14.30
2019-02-17T14:30:03.544Z,14.70
2019-02-17T14:32:32.021Z,14.90
2019-02-17T14:35:00.414Z,15.67
2019-02-17T14:37:28.931Z,15.13
2019-02-17T14:39:57.375Z,15.57
2019-02-17T14:42:25.795Z,14.87
2019-02-17T14:44:54.203Z,15.30
2019-02-17T14:47:22.594Z,15.10
2019-02-17T14:49:51.003Z,14.73
2019-02-17T14:52:19.391Z,15.17
2019-02-17T14:54:47.779Z,15.33
2019-02-17T14:57:16.191Z,14.43
2019-02-17T14:59:44.579Z,15.13
2019-02-17T15:02:12.972Z,14.23
2019-02-17T15:04:41.396Z,14.97
2019-02-17T15:07:09.819Z,14.40
2019-02-17T15:09:38.307Z,15.07
2019-02-17T15:12:06.719Z,14.50
2019-02-17T15:14:35.203Z,14.70
2019-02-17T15:17:03.856Z,15.20
2019-02-17T15:19:32.252Z,15.43
2019-02-17T15:22:01.123Z,15.03
2019-02-17T15:24:29.928Z,15.60
2019-02-17T15:26:58.435Z,17.63
2019-02-17T15:29:26.824Z,17.70
2019-02-17T15:31:55.225Z,15.53
2019-02-17T15:34:23.612Z,15.60
2019-02-17T15:36:54.260Z,15.43
2019-02-17T15:39:22.988Z,15.67
2019-02-17T15:41:52.104Z,15.07
2019-02-17T15:44:20.527Z,14.87
2019-02-17T15:46:48.936Z,14.80
2019-02-17T15:49:17.432Z,16.20
2019-02-17T15:51:45.816Z,15.03
2019-02-17T15:54:14.224Z,15.07
2019-02-17T15:56:43.016Z,15.30
2019-02-17T15:59:11.444Z,14.90
2019-02-17T16:01:39.926Z,14.10
2019-02-17T16:04:08.316Z,14.57
2019-02-17T16:06:36.736Z,13.67
2019-02-17T16:09:05.937Z,14.30
2019-02-17T16:11:34.384Z,14.87
2019-02-17T16:14:03.537Z,21.23
2019-02-17T16:16:31.936Z,21.07
2019-02-17T16:19:00.753Z,25.67
2019-02-17T16:21:29.483Z,27.23
2019-02-17T16:23:57.885Z,29.17
2019-02-17T16:26:26.605Z,27.57
2019-02-17T16:28:55.196Z,30.03
2019-02-17T16:31:23.645Z,25.47
2019-02-17T16:33:52.173Z,21.37
2019-02-17T16:36:20.564Z,17.77
2019-02-17T16:38:48.975Z,20.23
2019-02-17T16:41:17.381Z,18.70
2019-02-17T16:43:46.149Z,20.27
2019-02-17T16:46:14.541Z,23.00
2019-02-17T16:48:42.994Z,23.77
2019-02-17T16:51:11.553Z,21.37
2019-02-17T16:53:40.025Z,19.23
2019-02-17T16:56:08.568Z,19.53
2019-02-17T16:58:36.985Z,22.20
2019-02-17T17:01:05.465Z,23.30
2019-02-17T17:03:34.273Z,26.37
2019-02-17T17:06:02.739Z,29.97
2019-02-17T17:08:31.422Z,30.13
2019-02-17T17:10:59.885Z,21.93
2019-02-17T17:13:28.382Z,21.57
2019-02-17T17:15:56.785Z,15.53
2019-02-17T17:18:25.181Z,15.17
2019-02-17T17:20:53.602Z,15.60
2019-02-17T17:23:22.070Z,18.90
2019-02-17T17:25:50.798Z,17.47
2019-02-17T17:28:19.198Z,20.40
2019-02-17T17:30:47.630Z,20.77
2019-02-17T17:33:16.037Z,21.77
2019-02-17T17:35:44.418Z,23.47
2019-02-17T17:38:12.830Z,21.33
2019-02-17T17:40:41.218Z,21.30
2019-02-17T17:43:09.626Z,21.43
2019-02-17T17:45:38.139Z,24.60
2019-02-17T17:48:06.726Z,26.00
2019-02-17T17:50:35.165Z,25.63
2019-02-17T17:53:04.390Z,25.03
2019-02-17T17:55:32.798Z,27.33
2019-02-17T17:58:02.606Z,25.63
2019-02-17T18:00:32.675Z,26.60
2019-02-17T18:03:01.094Z,30.57
2019-02-17T18:05:29.506Z,28.97
2019-02-17T18:07:57.944Z,24.83
2019-02-17T18:10:26.443Z,22.00
2019-02-17T18:12:54.926Z,19.07
2019-02-17T18:15:23.322Z,20.37
2019-02-17T18:17:54.888Z,18.03
2019-02-17T18:20:22.488Z,15.20
2019-02-17T18:22:50.958Z,15.37
2019-02-17T18:25:19.475Z,16.53
2019-02-17T18:27:47.955Z,15.93
2019-02-17T18:30:16.866Z,15.80
2019-02-17T18:32:45.355Z,17.47
2019-02-17T18:35:19.711Z,18.23
2019-02-17T18:37:44.016Z,18.87
2019-02-17T18:40:12.495Z,20.32
2019-02-17T18:42:41.011Z,22.80
2019-02-17T18:45:10.011Z,23.40
2019-02-17T18:47:38.493Z,24.53
2019-02-17T18:50:08.390Z,22.80
2019-02-17T18:52:36.816Z,19.73
2019-02-17T18:55:05.223Z,26.17
2019-02-17T18:57:33.643Z,25.13
2019-02-17T19:00:02.057Z,24.27
2019-02-17T19:02:30.555Z,22.80
2019-02-17T19:04:58.963Z,22.00
2019-02-17T19:07:27.720Z,22.20
2019-02-17T19:09:56.139Z,21.07
2019-02-17T19:12:24.528Z,21.00
2019-02-17T19:14:52.919Z,20.70
2019-02-17T19:17:21.388Z,20.90
2019-02-17T19:19:49.836Z,23.83
2019-02-17T19:22:18.316Z,20.70
2019-02-17T19:24:46.724Z,21.07
2019-02-17T19:27:15.144Z,19.40
2019-02-17T19:29:44.212Z,20.37
2019-02-17T19:32:12.610Z,20.57
2019-02-17T19:34:41.075Z,20.23
2019-02-17T19:37:09.476Z,21.70
2019-02-17T19:39:37.976Z,19.17
2019-02-17T19:42:06.757Z,23.43
2019-02-17T19:44:35.240Z,22.03
2019-02-17T19:47:03.666Z,18.57
2019-02-17T19:49:33.746Z,13.90
2019-02-17T19:52:02.438Z,14.83
2019-02-17T19:54:30.840Z,15.63
2019-02-17T19:56:59.300Z,13.73
2019-02-17T19:59:27.851Z,13.83
2019-02-17T20:01:56.229Z,13.90
2019-02-17T20:04:33.901Z,16.73
2019-02-17T20:07:02.377Z,17.37
2019-02-17T20:09:30.849Z,24.70
2019-02-17T20:11:59.345Z,18.77
2019-02-17T20:14:27.750Z,22.53
2019-02-17T20:16:56.505Z,14.63
2019-02-17T20:19:25.714Z,16.93
2019-02-17T20:21:54.333Z,20.57
2019-02-17T20:24:22.709Z,20.30
2019-02-17T20:26:52.913Z,21.33
2019-02-17T20:29:21.343Z,19.87
2019-02-17T20:31:49.777Z,19.40
2019-02-17T20:34:18.382Z,21.10
2019-02-17T20:36:47.145Z,20.57
2019-02-17T20:39:15.622Z,19.97
2019-02-17T20:41:44.022Z,17.50
2019-02-17T20:44:12.509Z,19.13
2019-02-17T20:46:41.012Z,18.03
2019-02-17T20:49:09.701Z,18.67
2019-02-17T20:51:38.121Z,15.93
2019-02-17T20:54:06.961Z,17.67
2019-02-17T20:56:35.345Z,15.00
2019-02-17T20:59:03.812Z,12.97
2019-02-17T21:01:32.298Z,13.47
2019-02-17T21:04:00.669Z,13.47
2019-02-17T21:06:29.062Z,12.80
2019-02-17T21:08:57.525Z,17.07
2019-02-17T21:11:25.995Z,16.27
2019-02-17T21:13:54.738Z,16.80
2019-02-17T21:16:23.198Z,16.63
2019-02-17T21:18:51.710Z,16.67
2019-02-17T21:21:20.174Z,16.37
2019-02-17T21:23:48.570Z,17.23
2019-02-17T21:26:16.962Z,15.57
2019-02-17T21:28:45.354Z,17.80
2019-02-17T21:31:13.835Z,15.50
2019-02-17T21:33:42.647Z,11.57
2019-02-17T21:36:11.038Z,10.23
2019-02-17T21:38:39.442Z,9.23
2019-02-17T21:41:09.519Z,9.77
2019-02-17T21:43:38.167Z,12.47
2019-02-17T21:46:06.602Z,12.17
2019-02-17T21:48:34.986Z,11.93
2019-02-17T21:51:03.397Z,12.07
2019-02-17T21:53:31.789Z,12.37
2019-02-17T21:56:00.338Z,12.27
2019-02-17T21:58:28.721Z,13.70
2019-02-17T22:00:57.117Z,15.07
2019-02-17T22:03:25.606Z,14.33
2019-02-17T22:05:54.070Z,14.10
2019-02-17T22:08:22.530Z,13.37
2019-02-17T22:10:51.006Z,13.93
2019-02-17T22:13:19.473Z,14.27
2019-02-17T22:15:47.886Z,12.80
2019-02-17T22:18:16.266Z,9.70
2019-02-17T22:20:44.758Z,14.43
2019-02-17T22:23:13.158Z,15.33
2019-02-17T22:25:41.612Z,14.43
2019-02-17T22:28:09.990Z,13.37
2019-02-17T22:30:38.394Z,13.97
2019-02-17T22:33:06.862Z,13.77
2019-02-17T22:35:35.668Z,13.77
2019-02-17T22:38:04.070Z,13.37
2019-02-17T22:40:32.468Z,13.70
2019-02-17T22:43:00.860Z,11.80
2019-02-17T22:45:29.258Z,13.37
2019-02-17T22:47:57.754Z,13.00
2019-02-17T22:50:26.268Z,12.90
2019-02-17T22:52:54.654Z,11.60
2019-02-17T22:55:23.120Z,12.53
2019-02-17T22:57:51.662Z,12.13
2019-02-17T23:00:29.556Z,11.70
2019-02-17T23:02:58.058Z,11.90
2019-02-17T23:05:26.459Z,11.47
2019-02-17T23:07:54.922Z,11.60
2019-02-17T23:10:23.390Z,11.43
2019-02-17T23:12:51.886Z,11.67
2019-02-17T23:15:20.370Z,11.67
2019-02-17T23:17:49.131Z,11.83
2019-02-17T23:20:17.586Z,12.07
2019-02-17T23:22:46.003Z,12.37
2019-02-17T23:25:14.471Z,12.20
2019-02-17T23:27:42.869Z,11.13
2019-02-17T23:30:11.332Z,11.23
2019-02-17T23:32:39.807Z,10.87
2019-02-17T23:35:08.261Z,10.93
2019-02-17T23:37:36.674Z,10.83
2019-02-17T23:40:05.786Z,10.90
2019-02-17T23:42:34.179Z,10.77
2019-02-17T23:45:02.675Z,11.10
2019-02-17T23:47:31.359Z,10.47
2019-02-17T23:50:00.158Z,10.30
2019-02-17T23:52:28.719Z,9.90
2019-02-17T23:54:57.195Z,10.37
2019-02-17T23:57:25.591Z,9.27
2019-02-17T23:59:54.164Z,9.60
